首页
METAR-TAF:

METAR-TAF

机场 :

空军基地

Salon-de-Provence, 法国

纬度: 43-36N, 经度: 005-06E, 海拔: 59米

当前天气观测

该预报发布于42分钟前的16:00 UTC
风速15节,风向西北
温度 23°C
湿度 44%
气压 1006 hPa
能见度10公里或以上
1500米以下无云,无积雨云

METAR: LFMY 051600Z AUTO 32015KT CAVOK 23/10 Q1006

时间: 18:42 (16:42 UTC)

预报

该预报发布于2小时和42分钟前的14:00 UTC
预报有效从05日的 15点(UTC)到 06日的 15点(UTC)
风速15节,风向北转西北,有时为25节阵风
能见度10公里或以上
1500米以下无云,无积雨云
成为
从 05日的 23点(UTC)到 06日的 01点(UTC)
风速2节,风向多变
成为
从 06日的 12点(UTC)到 06日的 14点(UTC)
风速10节,风向西

TAF: LFMY 051400Z 0515/0615 33015G25KT CAVOK BECMG 0523/0601 VRB02KT BECMG 0612/0614 26010KT

超过4000个机场的气象观测和天气预报(METAR&TAF报告)。

可查询的气象台以黄色和红色小点在地图上表示。

将鼠标移到小点上方,可查看气象台名称。

然后点击查看天气观测和预报。

如需切换地图:点击带黑十字的绿色按钮放大地图;点击带横线的绿色按钮缩小地图;或者点击绿色箭头查看邻近地区的地图。


METAR-TAF: